createdAt,value
2018-09-08T00:01:26.005Z,74.53
2018-09-08T00:03:59.852Z,74.11
2018-09-08T00:06:34.234Z,74.25
2018-09-08T00:09:07.748Z,74.62
2018-09-08T00:11:40.961Z,73.12
2018-09-08T00:14:14.031Z,74.17
2018-09-08T00:16:49.769Z,72.80
2018-09-08T00:19:26.230Z,73.39
2018-09-08T00:22:03.541Z,73.94
2018-09-08T00:24:40.024Z,73.61
2018-09-08T00:27:12.116Z,74.91
2018-09-08T00:29:47.620Z,74.56
2018-09-08T00:32:20.535Z,75.49
2018-09-08T00:34:51.109Z,75.61
2018-09-08T00:37:23.374Z,75.60
2018-09-08T00:39:54.462Z,75.83
2018-09-08T00:42:30.335Z,76.03
2018-09-08T00:45:01.483Z,74.88
2018-09-08T00:47:32.709Z,75.29
2018-09-08T00:50:04.318Z,75.58
2018-09-08T00:52:36.123Z,75.96
2018-09-08T00:55:08.880Z,75.65
2018-09-08T00:57:41.068Z,76.05
2018-09-08T01:00:12.590Z,76.71
2018-09-08T01:02:48.668Z,77.24
2018-09-08T01:05:20.623Z,77.03
2018-09-08T01:07:52.773Z,77.23
2018-09-08T01:10:24.550Z,77.10
2018-09-08T01:12:56.064Z,77.25
2018-09-08T01:15:27.134Z,77.54
2018-09-08T01:17:59.755Z,76.73
2018-09-08T01:20:31.266Z,78.16
2018-09-08T01:23:02.405Z,77.34
2018-09-08T01:25:32.838Z,76.84
2018-09-08T01:28:02.960Z,78.64
2018-09-08T01:30:33.463Z,77.09
2018-09-08T01:33:04.527Z,77.74
2018-09-08T01:35:38.961Z,78.79
2018-09-08T01:38:10.086Z,79.04
2018-09-08T01:40:40.399Z,78.55
2018-09-08T01:43:11.626Z,78.09
2018-09-08T01:45:46.101Z,78.49
2018-09-08T01:48:17.403Z,78.96
2018-09-08T01:50:58.225Z,77.86
2018-09-08T01:53:31.472Z,78.75
2018-09-08T01:56:03.177Z,78.25
2018-09-08T01:58:35.647Z,78.37
2018-09-08T02:01:09.080Z,77.67
2018-09-08T02:03:40.816Z,78.58
2018-09-08T02:06:11.365Z,77.47
2018-09-08T02:08:42.974Z,77.37
2018-09-08T02:11:14.345Z,77.24
2018-09-08T02:13:46.105Z,77.88
2018-09-08T02:16:18.036Z,77.61
2018-09-08T02:18:48.661Z,78.68
2018-09-08T02:21:22.498Z,77.04
2018-09-08T02:23:54.873Z,77.67
2018-09-08T02:26:28.036Z,77.27
2018-09-08T02:29:00.214Z,76.65
2018-09-08T02:31:32.290Z,78.21
2018-09-08T02:34:03.697Z,77.45
2018-09-08T02:36:37.440Z,76.80
2018-09-08T02:39:11.656Z,77.24
2018-09-08T02:41:43.774Z,77.44
2018-09-08T02:44:14.370Z,76.96
2018-09-08T02:46:51.033Z,77.49
2018-09-08T02:49:22.111Z,76.79
2018-09-08T02:51:51.067Z,76.55
2018-09-08T02:54:20.374Z,77.16
2018-09-08T02:56:49.304Z,77.37
2018-09-08T02:59:19.642Z,76.09
2018-09-08T03:01:50.418Z,75.80
2018-09-08T03:04:19.715Z,76.47
2018-09-08T03:06:48.130Z,77.67
2018-09-08T03:22:34.608Z,77.58
2018-09-08T03:25:03.092Z,77.70
2018-09-08T03:27:33.004Z,78.03
2018-09-08T03:30:01.281Z,78.12
2018-09-08T03:32:31.763Z,78.33
2018-09-08T03:35:00.399Z,78.30
2018-09-08T03:37:28.864Z,79.17
2018-09-08T03:39:57.253Z,79.32
2018-09-08T03:42:26.468Z,78.66
2018-09-08T03:44:55.677Z,78.61
2018-09-08T03:47:23.746Z,79.86
2018-09-08T03:49:53.950Z,78.95
2018-09-08T03:52:23.134Z,79.56
2018-09-08T03:54:52.126Z,79.48
2018-09-08T03:57:20.307Z,79.72
2018-09-08T03:59:48.881Z,79.79
2018-09-08T04:02:17.051Z,79.11
2018-09-08T04:04:49.070Z,80.11
2018-09-08T04:07:20.058Z,78.97
2018-09-08T04:09:53.272Z,79.53
2018-09-08T04:12:23.486Z,79.19
2018-09-08T04:14:55.160Z,79.71
2018-09-08T04:17:25.865Z,79.50
2018-09-08T04:19:57.659Z,79.81
2018-09-08T04:22:31.946Z,79.83
2018-09-08T04:25:03.195Z,79.61
2018-09-08T04:27:38.333Z,79.95
2018-09-08T04:30:08.850Z,80.58
2018-09-08T04:32:41.180Z,81.21
2018-09-08T04:35:12.569Z,81.21
2018-09-08T04:37:42.882Z,80.70
2018-09-08T04:40:13.328Z,80.65
2018-09-08T04:42:43.465Z,81.07
2018-09-08T04:45:13.680Z,80.53
2018-09-08T04:47:43.893Z,81.15
2018-09-08T04:50:14.197Z,81.87
2018-09-08T04:52:44.525Z,81.23
2018-09-08T04:55:17.930Z,81.87
2018-09-08T04:57:48.668Z,80.97
2018-09-08T05:00:19.184Z,81.00
2018-09-08T05:02:49.833Z,81.52
2018-09-08T05:05:20.477Z,81.93
2018-09-08T05:07:51.006Z,81.59
2018-09-08T05:10:22.125Z,81.81
2018-09-08T05:12:53.157Z,82.26
2018-09-08T05:15:24.454Z,81.65
2018-09-08T05:17:55.495Z,82.03
2018-09-08T05:20:26.160Z,81.90
2018-09-08T05:22:57.251Z,80.88
2018-09-08T05:25:28.162Z,80.78
2018-09-08T05:27:59.542Z,80.73
2018-09-08T05:30:31.029Z,80.60
2018-09-08T05:33:01.495Z,80.97
2018-09-08T05:35:32.544Z,79.66
2018-09-08T05:41:01.767Z,79.90
2018-09-08T05:43:33.525Z,81.21
2018-09-08T05:46:05.283Z,81.43
2018-09-08T05:48:45.264Z,80.11
2018-09-08T05:51:16.252Z,80.56
2018-09-08T05:53:47.177Z,79.97
2018-09-08T05:56:17.952Z,80.62
2018-09-08T05:58:49.810Z,80.70
2018-09-08T06:04:22.100Z,80.02
2018-09-08T06:06:58.471Z,81.65
2018-09-08T06:09:39.171Z,81.03
2018-09-08T06:12:10.858Z,81.28
2018-09-08T06:14:59.320Z,80.64
2018-09-08T06:17:30.663Z,81.08
2018-09-08T06:20:22.298Z,81.32
2018-09-08T06:23:09.665Z,80.58
2018-09-08T06:26:00.974Z,81.51
2018-09-08T06:28:37.500Z,81.44
2018-09-08T06:31:14.925Z,81.61
2018-09-08T06:33:48.249Z,81.64
2018-09-08T06:36:19.296Z,82.18
2018-09-08T06:38:51.086Z,82.19
2018-09-08T06:41:26.965Z,81.56
2018-09-08T06:43:59.825Z,82.75
2018-09-08T06:46:30.335Z,82.41
2018-09-08T06:49:05.468Z,82.37
2018-09-08T06:51:37.330Z,82.59
2018-09-08T06:54:08.912Z,83.31
2018-09-08T06:56:39.670Z,82.87
2018-09-08T07:16:50.992Z,78.78
2018-09-08T07:19:23.600Z,79.53
2018-09-08T07:21:56.406Z,78.97
2018-09-08T07:24:26.995Z,77.82
2018-09-08T07:26:58.055Z,76.49
2018-09-08T07:29:32.460Z,75.20
2018-09-08T07:32:06.583Z,75.43
2018-09-08T07:34:37.100Z,76.13
2018-09-08T07:37:10.779Z,75.64
2018-09-08T07:39:41.127Z,76.86
2018-09-08T07:42:17.415Z,78.28
2018-09-08T07:44:49.038Z,78.39
2018-09-08T07:47:21.009Z,78.67
2018-09-08T07:49:51.641Z,78.04
2018-09-08T07:52:24.945Z,78.79
2018-09-08T07:54:55.140Z,78.82
2018-09-08T08:42:33.156Z,77.90
2018-09-08T08:45:05.717Z,79.17
2018-09-08T08:47:36.033Z,79.26
2018-09-08T08:50:22.667Z,79.39
2018-09-08T08:53:09.878Z,78.59
2018-09-08T08:55:40.194Z,78.86
2018-09-08T08:58:10.610Z,78.51
2018-09-08T09:00:40.914Z,77.78
2018-09-08T09:03:17.929Z,77.94
2018-09-08T09:05:51.471Z,77.08
2018-09-08T09:08:22.431Z,78.43
2018-09-08T09:10:54.602Z,78.25
2018-09-08T09:16:27.454Z,78.33
2018-09-08T09:19:36.593Z,78.82
2018-09-08T09:24:34.097Z,79.65
2018-09-08T09:36:20.165Z,78.78
2018-09-08T09:38:53.574Z,77.32
2018-09-08T09:41:35.574Z,77.52
2018-09-08T09:44:06.293Z,77.94
2018-09-08T09:46:50.763Z,76.67
2018-09-08T09:49:27.897Z,76.19
2018-09-08T09:51:58.925Z,76.35
2018-09-08T09:54:29.397Z,75.22
2018-09-08T09:57:00.042Z,75.25
2018-09-08T09:59:30.554Z,74.37
2018-09-08T10:02:07.968Z,74.46
2018-09-08T10:04:39.515Z,73.92
2018-09-08T10:07:11.887Z,73.40
2018-09-08T10:09:42.209Z,74.53
2018-09-08T10:12:16.404Z,73.97
2018-09-08T10:14:47.546Z,73.95
2018-09-08T10:17:17.996Z,73.29
2018-09-08T10:19:48.621Z,73.34
2018-09-08T10:22:18.740Z,72.52
2018-09-08T10:24:49.796Z,72.69
2018-09-08T10:27:20.415Z,72.75
2018-09-08T10:29:51.162Z,71.64
2018-09-08T10:32:28.854Z,72.32
2018-09-08T10:35:00.618Z,71.29
2018-09-08T10:37:35.656Z,70.71
2018-09-08T10:40:07.499Z,70.06
2018-09-08T10:42:40.087Z,68.88
2018-09-08T10:45:10.723Z,68.63
2018-09-08T10:47:40.920Z,69.33
2018-09-08T10:50:16.786Z,69.33
2018-09-08T10:52:49.502Z,68.49
2018-09-08T10:55:20.788Z,69.58
2018-09-08T10:57:53.823Z,69.82
2018-09-08T11:00:24.965Z,70.50
2018-09-08T11:02:55.580Z,69.02
2018-09-08T11:05:26.923Z,68.19
2018-09-08T11:07:57.569Z,66.45
2018-09-08T11:10:28.520Z,66.35
2018-09-08T11:12:58.756Z,64.89
2018-09-08T11:15:29.706Z,65.15
2018-09-08T11:18:06.951Z,65.23
2018-09-08T11:20:37.370Z,63.92
2018-09-08T11:23:08.550Z,64.88
2018-09-08T11:25:40.111Z,64.71
2018-09-08T11:28:14.647Z,65.34
2018-09-08T11:30:45.734Z,64.91
2018-09-08T11:33:17.957Z,65.25
2018-09-08T11:35:48.416Z,64.66
2018-09-08T11:38:24.891Z,63.84
2018-09-08T11:43:30.242Z,62.33
2018-09-08T11:46:00.720Z,60.74
2018-09-08T11:48:32.208Z,59.98
2018-09-08T11:51:02.815Z,58.64
2018-09-08T11:53:33.517Z,59.18
2018-09-08T11:56:09.088Z,57.00
2018-09-08T11:58:39.981Z,56.96
2018-09-08T12:01:14.079Z,58.14
2018-09-08T12:03:58.469Z,59.03
2018-09-08T12:06:35.036Z,59.49
2018-09-08T12:09:39.329Z,59.80
2018-09-08T12:12:18.182Z,60.70
2018-09-08T12:14:55.915Z,58.64
2018-09-08T12:17:29.714Z,57.34
2018-09-08T12:27:59.387Z,55.83
2018-09-08T12:30:39.770Z,58.89
2018-09-08T12:48:50.963Z,58.60
2018-09-08T12:51:23.925Z,57.82
2018-09-08T12:53:58.651Z,57.37
2018-09-08T12:56:32.417Z,57.35
2018-09-08T12:59:08.692Z,58.13
2018-09-08T13:01:51.118Z,58.61
2018-09-08T13:04:25.212Z,57.98
2018-09-08T13:07:00.347Z,58.58
2018-09-08T13:09:34.403Z,58.81
2018-09-08T13:12:15.337Z,58.40
2018-09-08T13:14:55.540Z,58.04
2018-09-08T13:20:39.204Z,58.07
2018-09-08T13:23:17.847Z,57.68
2018-09-08T13:25:50.302Z,56.24
2018-09-08T13:41:53.192Z,56.41
2018-09-08T13:44:27.980Z,55.91
2018-09-08T13:47:00.677Z,56.61
2018-09-08T13:49:34.023Z,55.70
2018-09-08T13:52:11.900Z,56.24
2018-09-08T13:54:44.847Z,56.58
2018-09-08T13:57:21.425Z,55.74
2018-09-08T14:00:03.983Z,57.55
2018-09-08T14:02:38.476Z,56.15
2018-09-08T14:06:44.067Z,55.78
2018-09-08T14:09:19.043Z,57.28
2018-09-08T14:11:53.970Z,57.17
2018-09-08T14:14:27.938Z,57.37
2018-09-08T14:17:01.880Z,56.34
2018-09-08T14:19:34.598Z,55.34
2018-09-08T14:22:08.612Z,55.11
2018-09-08T14:24:38.932Z,54.82
2018-09-08T14:27:09.420Z,54.85
2018-09-08T14:29:40.698Z,54.79
2018-09-08T14:32:13.258Z,54.47
2018-09-08T14:34:45.656Z,54.36
2018-09-08T14:37:17.573Z,54.04
2018-09-08T14:39:50.274Z,53.38
2018-09-08T14:42:21.448Z,54.04
2018-09-08T14:44:53.266Z,53.09
2018-09-08T14:47:25.759Z,52.54
2018-09-08T14:49:58.560Z,53.14
2018-09-08T14:52:31.058Z,52.46
2018-09-08T14:55:02.785Z,52.39
2018-09-08T14:57:34.548Z,53.28
2018-09-08T15:00:06.685Z,52.37
2018-09-08T15:02:42.013Z,53.35
2018-09-08T15:05:12.513Z,53.67
2018-09-08T15:08:00.433Z,53.09
2018-09-08T15:23:50.869Z,53.86
2018-09-08T15:26:22.196Z,53.63
2018-09-08T15:28:53.701Z,54.19
2018-09-08T15:31:24.373Z,53.54
2018-09-08T15:33:55.481Z,53.87
2018-09-08T15:36:26.427Z,53.89
2018-09-08T15:39:00.417Z,54.81
2018-09-08T15:41:31.834Z,54.50
2018-09-08T15:44:01.982Z,55.77
2018-09-08T15:46:33.075Z,55.03
2018-09-08T15:49:04.625Z,55.04
2018-09-08T15:51:35.152Z,55.14
2018-09-08T15:54:07.153Z,55.60
2018-09-08T15:56:38.241Z,55.33
2018-09-08T15:59:08.556Z,55.43
2018-09-08T16:01:40.087Z,54.40
2018-09-08T16:04:13.429Z,54.78
2018-09-08T16:06:44.162Z,54.48
2018-09-08T16:11:51.363Z,56.04
2018-09-08T16:14:24.519Z,55.69
2018-09-08T16:16:56.521Z,55.68
2018-09-08T16:19:28.139Z,55.49
2018-09-08T16:21:59.144Z,56.35
2018-09-08T16:24:29.492Z,56.46
2018-09-08T16:27:01.201Z,55.96
2018-09-08T16:29:33.104Z,56.59
2018-09-08T16:32:03.487Z,56.62
2018-09-08T16:34:35.068Z,57.48
2018-09-08T16:37:07.113Z,57.73
2018-09-08T16:39:38.885Z,57.98
2018-09-08T16:42:09.386Z,57.90
2018-09-08T16:44:43.308Z,58.83
2018-09-08T16:47:13.968Z,59.41
2018-09-08T16:49:45.289Z,57.90
2018-09-08T16:52:17.051Z,59.20
2018-09-08T16:54:49.808Z,58.48
2018-09-08T16:57:21.702Z,59.22
2018-09-08T16:59:55.825Z,59.37
2018-09-08T17:02:27.469Z,59.02
2018-09-08T17:04:58.371Z,59.31
2018-09-08T17:07:29.957Z,59.39
2018-09-08T17:10:00.828Z,59.88
2018-09-08T17:12:34.907Z,59.17
2018-09-08T17:15:08.016Z,59.64
2018-09-08T17:17:39.002Z,59.89
2018-09-08T17:20:10.353Z,60.34
2018-09-08T17:22:41.371Z,60.25
2018-09-08T17:25:12.387Z,59.82
2018-09-08T17:27:43.403Z,60.03
2018-09-08T17:30:14.334Z,60.57
2018-09-08T17:32:45.787Z,60.22
2018-09-08T17:35:22.569Z,60.80
2018-09-08T17:37:54.033Z,61.07
2018-09-08T17:40:27.824Z,60.97
2018-09-08T17:43:00.327Z,60.70
2018-09-08T17:45:30.894Z,61.17
2018-09-08T17:48:03.997Z,61.23
2018-09-08T17:50:34.960Z,60.79
2018-09-08T17:53:05.585Z,61.31
2018-09-08T17:58:29.195Z,61.16
2018-09-08T18:01:01.235Z,62.13
2018-09-08T18:06:10.055Z,61.29
2018-09-08T18:08:42.148Z,61.82
2018-09-08T18:11:15.856Z,62.62
2018-09-08T18:13:54.205Z,62.48
2018-09-08T18:16:25.499Z,62.08
2018-09-08T18:18:56.626Z,62.51
2018-09-08T18:21:27.575Z,62.07
2018-09-08T18:24:00.054Z,62.20
2018-09-08T18:26:31.271Z,63.03
2018-09-08T18:29:02.763Z,62.77
2018-09-08T18:31:35.312Z,63.06
2018-09-08T18:34:09.564Z,62.81
2018-09-08T18:36:44.823Z,62.94
2018-09-08T18:39:16.635Z,62.97
2018-09-08T18:41:54.965Z,62.55
2018-09-08T18:44:32.069Z,63.09
2018-09-08T18:47:10.171Z,62.78
2018-09-08T18:49:42.736Z,62.71
2018-09-08T18:55:07.862Z,63.44
2018-09-08T18:57:43.422Z,63.63
2018-09-08T19:00:16.194Z,64.15
2018-09-08T19:02:53.675Z,63.51
2018-09-08T19:05:25.219Z,63.34
2018-09-08T19:07:58.944Z,64.35
2018-09-08T19:10:37.958Z,64.17
2018-09-08T19:13:12.841Z,63.57
2018-09-08T19:15:44.083Z,63.06
2018-09-08T19:18:15.928Z,63.47
2018-09-08T19:20:48.652Z,63.14
2018-09-08T19:23:19.834Z,64.62
2018-09-08T19:25:51.843Z,64.27
2018-09-08T19:28:22.439Z,63.81
2018-09-08T19:31:01.699Z,63.66
2018-09-08T19:33:37.369Z,63.57
2018-09-08T19:36:09.129Z,63.68
2018-09-08T19:38:42.142Z,63.54
2018-09-08T19:41:15.044Z,64.25
2018-09-08T19:43:45.670Z,63.70
2018-09-08T19:46:21.480Z,66.77
2018-09-08T19:48:52.211Z,65.87
2018-09-08T19:51:25.395Z,65.45
2018-09-08T19:53:58.642Z,64.34
2018-09-08T19:56:36.395Z,64.71
2018-09-08T19:59:15.232Z,64.16
2018-09-08T20:01:47.253Z,65.56
2018-09-08T20:04:17.832Z,64.17
2018-09-08T20:06:51.438Z,63.82
2018-09-08T20:09:24.861Z,64.86
2018-09-08T20:11:55.550Z,64.15
2018-09-08T20:14:26.409Z,64.33
2018-09-08T20:16:58.594Z,63.51
2018-09-08T20:22:16.308Z,63.50
2018-09-08T20:24:47.980Z,65.22
2018-09-08T20:27:19.739Z,62.83
2018-09-08T20:29:52.193Z,62.82
2018-09-08T20:32:28.248Z,62.44
2018-09-08T20:35:00.293Z,62.10
2018-09-08T20:37:33.009Z,64.41
2018-09-08T20:40:04.551Z,63.05
2018-09-08T20:42:36.704Z,64.42
2018-09-08T20:45:10.311Z,63.18
2018-09-08T20:47:42.911Z,63.12
2018-09-08T20:50:15.959Z,62.64
2018-09-08T20:52:47.515Z,64.22
2018-09-08T20:55:19.607Z,62.58
2018-09-08T20:57:52.435Z,63.51
2018-09-08T21:00:25.233Z,63.53
2018-09-08T21:02:57.488Z,62.19
2018-09-08T21:05:28.896Z,62.21
2018-09-08T21:07:59.633Z,62.28
2018-09-08T21:10:29.910Z,63.21
2018-09-08T21:13:00.474Z,62.86
2018-09-08T21:15:30.994Z,62.80
2018-09-08T21:18:01.734Z,63.24
2018-09-08T21:20:33.287Z,63.31
2018-09-08T21:23:03.917Z,63.75
2018-09-08T21:25:34.554Z,63.29
2018-09-08T21:28:06.999Z,62.40
2018-09-08T21:30:38.988Z,62.74
2018-09-08T21:33:10.325Z,62.78
2018-09-08T21:35:40.840Z,62.76
2018-09-08T21:38:11.680Z,63.66
2018-09-08T21:40:43.595Z,62.02
2018-09-08T21:43:15.144Z,62.69
2018-09-08T21:45:47.180Z,62.04
2018-09-08T21:48:19.351Z,63.57
2018-09-08T21:50:55.890Z,63.55
2018-09-08T21:53:36.042Z,62.41
2018-09-08T21:56:13.129Z,62.36
2018-09-08T21:58:45.347Z,62.26
2018-09-08T22:01:21.873Z,62.48
2018-09-08T22:03:59.581Z,63.84
2018-09-08T22:06:34.112Z,62.80
2018-09-08T22:09:08.758Z,62.56
2018-09-08T22:11:39.639Z,61.08
2018-09-08T22:14:11.713Z,62.56
2018-09-08T22:16:45.701Z,62.32
2018-09-08T22:19:19.223Z,62.62
2018-09-08T22:24:27.143Z,62.82
2018-09-08T22:27:01.133Z,62.63
2018-09-08T22:29:33.322Z,62.54
2018-09-08T22:32:07.566Z,62.66
2018-09-08T22:34:40.144Z,61.55
2018-09-08T22:37:14.091Z,62.46
2018-09-08T22:39:47.135Z,63.25
2018-09-08T22:42:18.797Z,63.16
2018-09-08T22:44:50.756Z,63.45
2018-09-08T23:00:26.437Z,63.46
2018-09-08T23:02:57.511Z,63.08
2018-09-08T23:05:29.498Z,63.66
2018-09-08T23:08:01.153Z,64.89
2018-09-08T23:10:33.481Z,64.67
2018-09-08T23:13:04.285Z,64.56
2018-09-08T23:15:34.407Z,64.95
2018-09-08T23:18:07.463Z,65.49
2018-09-08T23:20:43.050Z,65.24
2018-09-08T23:26:00.074Z,66.15
2018-09-08T23:28:30.614Z,65.26
2018-09-08T23:31:04.403Z,66.02
2018-09-08T23:33:38.448Z,65.93
2018-09-08T23:36:13.983Z,66.78
2018-09-08T23:38:45.772Z,66.05
2018-09-08T23:41:34.813Z,65.85
2018-09-08T23:44:05.521Z,67.05
2018-09-08T23:46:37.579Z,66.53
2018-09-08T23:49:09.355Z,66.38
2018-09-08T23:51:42.329Z,66.78
2018-09-08T23:54:13.093Z,67.85
2018-09-08T23:56:45.743Z,66.94
2018-09-08T23:59:16.368Z,67.29
